NORTHEAST SUFFOLK  -  Winter Weather Advisory Winter Weather Advisory        NORTHERN NASSAU  -  Winter Weather Advisory Winter Weather Advisory        NORTHWEST SUFFOLK  -  Winter Weather Advisory Winter Weather Advisory        SOUTHEAST SUFFOLK  -  Winter Weather Advisory Winter Weather Advisory        SOUTHERN NASSAU  -  Winter Weather Advisory Winter Weather Advisory        SOUTHWEST SUFFOLK  -  Winter Weather Advisory Winter Weather Advisory      

Active alerts

Northern Nassau
  Details for Northern Nassau Winter Weather Advisory
Southern Nassau
  Details for Southern Nassau Winter Weather Advisory
Northwest Suffolk
  Details for Northwest Suffolk Winter Weather Advisory
Southwest Suffolk
  Details for Southwest Suffolk Winter Weather Advisory
Northeast Suffolk
  Details for Northeast Suffolk Winter Weather Advisory
Southeast Suffolk
  Details for Southeast Suffolk Winter Weather Advisory


WXM80 ListenWXM80 Stop

You find our weather info also at:

UK Metoffice

WeatherCloud

Weather Underground

Northeastern Weather Network

AWEKAS

Citizen Weather Observer Program (CWOP)

HAMweather, WeatherForYou, PWS Weather


Weather Underground History page Text

Daily Summary for September 14, 2017 Units:  Both    English   Metric
« Previous Day
Next Day »
Daily Weekly Monthly Yearly Custom
  High: Low: Average:
Temperature: 86.2 °F /  30.1 °C 68.4 °F /  20.2 °C 74.5 °F /  23.6 °C
Dew Point: 74.8 °F /  23.8 °C 66.1 °F /  18.9 °C 69.4 °F /  20.8 °C
Humidity: 97 % 57 % 85 %
Wind Speed: 4.5 mph /  7.2 km/h - 0.5 mph /  0.8 km/h
Wind Gust: 12.0 mph /  19.3 km/h - -
Wind:- - SSW
Pressure: 29.88 in /  1011.7 hPa 29.79 in /  1008.7 hPa -
Precipitation: 0.00 in /  0 mm    
Historical Graphs
 
 
Tabular Data for September 14, 2017
Time Temperature Dew Point Pressure Wind Wind Speed Wind Gust Humidity Rainfall Rate (Hourly)
00:01 72.0 °F /  22.2 °C 68.2 °F /  20.1 °C 29.82 in /  1009.7 hPa South 0.1 mph /  0.2 km/h 1.0 mph /  1.6 km/h 88 % 0.00 in /  0 mm
00:06 72.0 °F /  22.2 °C 68.2 °F /  20.1 °C 29.82 in /  1009.7 hPa Calm     88 % 0.00 in /  0 mm
00:11 72.0 °F /  22.2 °C 68.2 °F /  20.1 °C 29.82 in /  1009.7 hPa Calm   2.3 mph /  3.7 km/h 88 % 0.00 in /  0 mm
00:16 71.9 °F /  22.2 °C 68.2 °F /  20.1 °C 29.82 in /  1009.7 hPa South 0.2 mph /  0.3 km/h 1.2 mph /  1.9 km/h 88 % 0.00 in /  0 mm
00:21 71.9 °F /  22.2 °C 68.2 °F /  20.1 °C 29.82 in /  1009.7 hPa SSW 0.1 mph /  0.2 km/h 1.0 mph /  1.6 km/h 88 % 0.00 in /  0 mm
00:26 71.8 °F /  22.1 °C 68.1 °F /  20.1 °C 29.81 in /  1009.4 hPa SSW 0.1 mph /  0.2 km/h   88 % 0.00 in /  0 mm
00:31 71.8 °F /  22.1 °C 68.1 °F /  20.1 °C 29.81 in /  1009.4 hPa Calm     88 % 0.00 in /  0 mm
00:36 71.7 °F /  22.1 °C 68.0 °F /  20 °C 29.82 in /  1009.7 hPa Calm     88 % 0.00 in /  0 mm
00:41 71.6 °F /  22 °C 67.9 °F /  19.9 °C 29.81 in /  1009.4 hPa Calm   1.2 mph /  1.9 km/h 88 % 0.00 in /  0 mm
00:46 71.6 °F /  22 °C 68.2 °F /  20.1 °C 29.81 in /  1009.4 hPa SSW 0.2 mph /  0.3 km/h 1.2 mph /  1.9 km/h 89 % 0.00 in /  0 mm
00:51 71.5 °F /  21.9 °C 68.1 °F /  20.1 °C 29.81 in /  1009.4 hPa Calm   1.2 mph /  1.9 km/h 89 % 0.00 in /  0 mm
00:57 71.4 °F /  21.9 °C 68.0 °F /  20 °C 29.81 in /  1009.4 hPa SSW 0.3 mph /  0.5 km/h 3.5 mph /  5.6 km/h 89 % 0.00 in /  0 mm
01:02 71.3 °F /  21.8 °C 67.9 °F /  19.9 °C 29.81 in /  1009.4 hPa SSW 0.2 mph /  0.3 km/h 1.2 mph /  1.9 km/h 89 % 0.00 in /  0 mm
01:07 71.2 °F /  21.8 °C 67.8 °F /  19.9 °C 29.81 in /  1009.4 hPa SSW 0.1 mph /  0.2 km/h 1.2 mph /  1.9 km/h 89 % 0.00 in /  0 mm
01:12 71.1 °F /  21.7 °C 68.0 °F /  20 °C 29.81 in /  1009.4 hPa Calm   1.2 mph /  1.9 km/h 90 % 0.00 in /  0 mm
01:17 71.0 °F /  21.7 °C 67.9 °F /  19.9 °C 29.81 in /  1009.4 hPa SSW 0.1 mph /  0.2 km/h 1.2 mph /  1.9 km/h 90 % 0.00 in /  0 mm
01:22 70.9 °F /  21.6 °C 67.5 °F /  19.7 °C 29.81 in /  1009.4 hPa Calm     89 % 0.00 in /  0 mm
01:27 70.8 °F /  21.6 °C 67.4 °F /  19.7 °C 29.80 in /  1009 hPa Calm     89 % 0.00 in /  0 mm
01:32 70.7 °F /  21.5 °C 67.6 °F /  19.8 °C 29.80 in /  1009 hPa SW 0.1 mph /  0.2 km/h 1.2 mph /  1.9 km/h 90 % 0.00 in /  0 mm
01:37 70.6 °F /  21.4 °C 67.5 °F /  19.7 °C 29.81 in /  1009.4 hPa Calm   1.2 mph /  1.9 km/h 90 % 0.00 in /  0 mm
01:42 70.4 °F /  21.3 °C 67.3 °F /  19.6 °C 29.80 in /  1009 hPa Calm     90 % 0.00 in /  0 mm
01:47 70.3 °F /  21.3 °C 67.2 °F /  19.6 °C 29.81 in /  1009.4 hPa WSW 0.4 mph /  0.6 km/h 2.3 mph /  3.7 km/h 90 % 0.00 in /  0 mm
01:52 70.2 °F /  21.2 °C 67.1 °F /  19.5 °C 29.81 in /  1009.4 hPa Calm     90 % 0.00 in /  0 mm
01:57 70.1 °F /  21.2 °C 67.0 °F /  19.4 °C 29.81 in /  1009.4 hPa WSW 0.1 mph /  0.2 km/h 1.2 mph /  1.9 km/h 90 % 0.00 in /  0 mm
02:02 70.0 °F /  21.1 °C 66.9 °F /  19.4 °C 29.81 in /  1009.4 hPa WSW 0.2 mph /  0.3 km/h 1.2 mph /  1.9 km/h 90 % 0.00 in /  0 mm
02:07 69.9 °F /  21.1 °C 66.8 °F /  19.3 °C 29.81 in /  1009.4 hPa Calm     90 % 0.00 in /  0 mm
02:13 69.8 °F /  21 °C 67.1 °F /  19.5 °C 29.81 in /  1009.4 hPa Calm   1.2 mph /  1.9 km/h 91 % 0.00 in /  0 mm
02:18 69.7 °F /  20.9 °C 67.0 °F /  19.4 °C 29.81 in /  1009.4 hPa Calm     91 % 0.00 in /  0 mm
02:23 69.6 °F /  20.9 °C 66.5 °F /  19.2 °C 29.81 in /  1009.4 hPa Calm     90 % 0.00 in /  0 mm
02:28 69.5 °F /  20.8 °C 66.4 °F /  19.1 °C 29.81 in /  1009.4 hPa Calm     90 % 0.00 in /  0 mm
02:33 69.4 °F /  20.8 °C 66.7 °F /  19.3 °C 29.81 in /  1009.4 hPa Calm     91 % 0.00 in /  0 mm
02:38 69.3 °F /  20.7 °C 66.6 °F /  19.2 °C 29.81 in /  1009.4 hPa Calm     91 % 0.00 in /  0 mm
02:43 69.2 °F /  20.7 °C 66.5 °F /  19.2 °C 29.81 in /  1009.4 hPa Calm     91 % 0.00 in /  0 mm
02:48 69.1 °F /  20.6 °C 66.4 °F /  19.1 °C 29.80 in /  1009 hPa Calm     91 % 0.00 in /  0 mm
02:53 69.0 °F /  20.6 °C 66.3 °F /  19.1 °C 29.80 in /  1009 hPa Calm     91 % 0.00 in /  0 mm
02:58 69.0 °F /  20.6 °C 66.3 °F /  19.1 °C 29.80 in /  1009 hPa Calm     91 % 0.00 in /  0 mm
03:03 68.9 °F /  20.5 °C 66.2 °F /  19 °C 29.80 in /  1009 hPa Calm     91 % 0.00 in /  0 mm
03:08 68.9 °F /  20.5 °C 66.5 °F /  19.2 °C 29.80 in /  1009 hPa Calm     92 % 0.00 in /  0 mm
03:13 68.8 °F /  20.4 °C 66.4 °F /  19.1 °C 29.80 in /  1009 hPa Calm     92 % 0.00 in /  0 mm
03:19 68.7 °F /  20.4 °C 66.3 °F /  19.1 °C 29.80 in /  1009 hPa Calm     92 % 0.00 in /  0 mm
03:24 68.6 °F /  20.3 °C 66.2 °F /  19 °C 29.80 in /  1009 hPa Calm     92 % 0.00 in /  0 mm
03:29 68.5 °F /  20.3 °C 66.1 °F /  18.9 °C 29.80 in /  1009 hPa Calm     92 % 0.00 in /  0 mm
03:34 68.5 °F /  20.3 °C 66.1 °F /  18.9 °C 29.80 in /  1009 hPa Calm     92 % 0.00 in /  0 mm
03:39 68.5 °F /  20.3 °C 66.1 °F /  18.9 °C 29.80 in /  1009 hPa Calm   1.2 mph /  1.9 km/h 92 % 0.00 in /  0 mm
03:44 68.5 °F /  20.3 °C 66.4 °F /  19.1 °C 29.80 in /  1009 hPa Calm   1.2 mph /  1.9 km/h 93 % 0.00 in /  0 mm
03:49 68.5 °F /  20.3 °C 66.4 °F /  19.1 °C 29.80 in /  1009 hPa Calm     93 % 0.00 in /  0 mm
03:54 68.5 °F /  20.3 °C 66.4 °F /  19.1 °C 29.80 in /  1009 hPa Calm     93 % 0.00 in /  0 mm
03:59 68.4 °F /  20.2 °C 66.3 °F /  19.1 °C 29.80 in /  1009 hPa Calm     93 % 0.00 in /  0 mm
04:04 68.4 °F /  20.2 °C 66.6 °F /  19.2 °C 29.81 in /  1009.4 hPa Calm     94 % 0.00 in /  0 mm
04:09 68.4 °F /  20.2 °C 66.6 °F /  19.2 °C 29.80 in /  1009 hPa Calm   1.2 mph /  1.9 km/h 94 % 0.00 in /  0 mm
04:14 68.5 °F /  20.3 °C 66.7 °F /  19.3 °C 29.80 in /  1009 hPa Calm   1.2 mph /  1.9 km/h 94 % 0.00 in /  0 mm
04:20 68.5 °F /  20.3 °C 66.7 °F /  19.3 °C 29.80 in /  1009 hPa Calm     94 % 0.00 in /  0 mm
04:25 68.5 °F /  20.3 °C 66.7 °F /  19.3 °C 29.80 in /  1009 hPa Calm     94 % 0.00 in /  0 mm
04:30 68.6 °F /  20.3 °C 67.1 °F /  19.5 °C 29.81 in /  1009.4 hPa SW 0.1 mph /  0.2 km/h 2.3 mph /  3.7 km/h 95 % 0.00 in /  0 mm
04:35 68.6 °F /  20.3 °C 67.1 °F /  19.5 °C 29.80 in /  1009 hPa Calm   2.3 mph /  3.7 km/h 95 % 0.00 in /  0 mm
04:40 68.6 °F /  20.3 °C 67.1 °F /  19.5 °C 29.81 in /  1009.4 hPa Calm     95 % 0.00 in /  0 mm
04:45 68.7 °F /  20.4 °C 67.2 °F /  19.6 °C 29.81 in /  1009.4 hPa SW 0.4 mph /  0.6 km/h 1.2 mph /  1.9 km/h 95 % 0.00 in /  0 mm
04:50 68.7 °F /  20.4 °C 67.2 °F /  19.6 °C 29.81 in /  1009.4 hPa Calm     95 % 0.00 in /  0 mm
04:55 68.8 °F /  20.4 °C 67.3 °F /  19.6 °C 29.80 in /  1009 hPa Calm     95 % 0.00 in /  0 mm
05:00 68.9 °F /  20.5 °C 67.7 °F /  19.8 °C 29.81 in /  1009.4 hPa Calm     96 % 0.00 in /  0 mm
05:05 69.0 °F /  20.6 °C 67.8 °F /  19.9 °C 29.81 in /  1009.4 hPa Calm     96 % 0.00 in /  0 mm
05:10 69.1 °F /  20.6 °C 67.9 °F /  19.9 °C 29.81 in /  1009.4 hPa Calm     96 % 0.00 in /  0 mm
05:15 69.2 °F /  20.7 °C 68.0 °F /  20 °C 29.81 in /  1009.4 hPa SW 0.1 mph /  0.2 km/h 1.2 mph /  1.9 km/h 96 % 0.00 in /  0 mm
05:20 69.2 °F /  20.7 °C 68.0 °F /  20 °C 29.81 in /  1009.4 hPa Calm   1.2 mph /  1.9 km/h 96 % 0.00 in /  0 mm
05:26 69.2 °F /  20.7 °C 68.0 °F /  20 °C 29.81 in /  1009.4 hPa Calm   1.0 mph /  1.6 km/h 96 % 0.00 in /  0 mm
05:31 69.2 °F /  20.7 °C 68.0 °F /  20 °C 29.81 in /  1009.4 hPa SW 0.1 mph /  0.2 km/h   96 % 0.00 in /  0 mm
05:36 69.3 °F /  20.7 °C 68.1 °F /  20.1 °C 29.82 in /  1009.7 hPa Calm     96 % 0.00 in /  0 mm
05:41 69.3 °F /  20.7 °C 68.1 °F /  20.1 °C 29.82 in /  1009.7 hPa Calm     96 % 0.00 in /  0 mm
05:46 69.3 °F /  20.7 °C 68.1 °F /  20.1 °C 29.82 in /  1009.7 hPa Calm     96 % 0.00 in /  0 mm
05:51 69.3 °F /  20.7 °C 68.1 °F /  20.1 °C 29.82 in /  1009.7 hPa Calm     96 % 0.00 in /  0 mm
05:56 69.4 °F /  20.8 °C 68.2 °F /  20.1 °C 29.82 in /  1009.7 hPa Calm   1.0 mph /  1.6 km/h 96 % 0.00 in /  0 mm
06:01 69.4 °F /  20.8 °C 68.2 °F /  20.1 °C 29.82 in /  1009.7 hPa Calm     96 % 0.00 in /  0 mm
06:06 69.4 °F /  20.8 °C 68.2 °F /  20.1 °C 29.82 in /  1009.7 hPa Calm     96 % 0.00 in /  0 mm
06:11 69.5 °F /  20.8 °C 68.3 °F /  20.2 °C 29.82 in /  1009.7 hPa Calm     96 % 0.00 in /  0 mm
06:16 69.5 °F /  20.8 °C 68.3 °F /  20.2 °C 29.82 in /  1009.7 hPa Calm     96 % 0.00 in /  0 mm
06:21 69.5 °F /  20.8 °C 68.3 °F /  20.2 °C 29.82 in /  1009.7 hPa Calm     96 % 0.00 in /  0 mm
06:26 69.5 °F /  20.8 °C 68.3 °F /  20.2 °C 29.82 in /  1009.7 hPa Calm     96 % 0.00 in /  0 mm
06:31 69.5 °F /  20.8 °C 68.3 °F /  20.2 °C 29.82 in /  1009.7 hPa Calm     96 % 0.00 in /  0 mm
06:36 69.5 °F /  20.8 °C 68.3 °F /  20.2 °C 29.82 in /  1009.7 hPa Calm     96 % 0.00 in /  0 mm
06:41 69.6 °F /  20.9 °C 68.4 °F /  20.2 °C 29.82 in /  1009.7 hPa Calm     96 % 0.00 in /  0 mm
06:46 69.6 °F /  20.9 °C 68.4 °F /  20.2 °C 29.82 in /  1009.7 hPa Calm     96 % 0.00 in /  0 mm
06:51 69.7 °F /  20.9 °C 68.5 °F /  20.3 °C 29.83 in /  1010 hPa Calm     96 % 0.00 in /  0 mm
06:56 69.7 °F /  20.9 °C 68.5 °F /  20.3 °C 29.82 in /  1009.7 hPa Calm     96 % 0.00 in /  0 mm
07:02 69.7 °F /  20.9 °C 68.5 °F /  20.3 °C 29.82 in /  1009.7 hPa Calm     96 % 0.00 in /  0 mm
07:07 69.7 °F /  20.9 °C 68.5 °F /  20.3 °C 29.82 in /  1009.7 hPa Calm     96 % 0.00 in /  0 mm
07:12 69.7 °F /  20.9 °C 68.5 °F /  20.3 °C 29.82 in /  1009.7 hPa Calm     96 % 0.00 in /  0 mm
07:17 69.8 °F /  21 °C 68.6 °F /  20.3 °C 29.83 in /  1010 hPa Calm     96 % 0.00 in /  0 mm
07:22 69.8 °F /  21 °C 68.6 °F /  20.3 °C 29.83 in /  1010 hPa Calm     96 % 0.00 in /  0 mm
07:27 69.8 °F /  21 °C 68.6 °F /  20.3 °C 29.83 in /  1010 hPa Calm     96 % 0.00 in /  0 mm
07:32 69.8 °F /  21 °C 68.6 °F /  20.3 °C 29.83 in /  1010 hPa Calm     96 % 0.00 in /  0 mm
07:37 69.8 °F /  21 °C 68.6 °F /  20.3 °C 29.83 in /  1010 hPa Calm     96 % 0.00 in /  0 mm
07:42 69.8 °F /  21 °C 68.6 °F /  20.3 °C 29.83 in /  1010 hPa Calm   1.0 mph /  1.6 km/h 96 % 0.00 in /  0 mm
07:47 69.8 °F /  21 °C 68.6 °F /  20.3 °C 29.83 in /  1010 hPa Calm     96 % 0.00 in /  0 mm
07:52 69.9 °F /  21.1 °C 68.7 °F /  20.4 °C 29.83 in /  1010 hPa Calm     96 % 0.00 in /  0 mm
07:58 70.0 °F /  21.1 °C 68.8 °F /  20.4 °C 29.83 in /  1010 hPa SW 0.2 mph /  0.3 km/h 2.0 mph /  3.2 km/h 96 % 0.00 in /  0 mm
08:03 70.1 °F /  21.2 °C 68.9 °F /  20.5 °C 29.83 in /  1010 hPa Calm   1.2 mph /  1.9 km/h 96 % 0.00 in /  0 mm
08:08 70.3 °F /  21.3 °C 69.1 °F /  20.6 °C 29.83 in /  1010 hPa SW 0.7 mph /  1.1 km/h 2.3 mph /  3.7 km/h 96 % 0.00 in /  0 mm
08:13 70.4 °F /  21.3 °C 69.5 °F /  20.8 °C 29.83 in /  1010 hPa SW 1.2 mph /  1.9 km/h 2.3 mph /  3.7 km/h 97 % 0.00 in /  0 mm
08:18 70.5 °F /  21.4 °C 69.6 °F /  20.9 °C 29.83 in /  1010 hPa Calm     97 % 0.00 in /  0 mm
08:23 70.6 °F /  21.4 °C 69.7 °F /  20.9 °C 29.84 in /  1010.4 hPa SW 1.3 mph /  2.1 km/h 3.5 mph /  5.6 km/h 97 % 0.00 in /  0 mm
08:28 70.8 °F /  21.6 °C 69.9 °F /  21.1 °C 29.84 in /  1010.4 hPa SSE 1.0 mph /  1.6 km/h 3.5 mph /  5.6 km/h 97 % 0.00 in /  0 mm
08:33 70.9 °F /  21.6 °C 70.0 °F /  21.1 °C 29.84 in /  1010.4 hPa SW 3.0 mph /  4.8 km/h 4.6 mph /  7.4 km/h 97 % 0.00 in /  0 mm
08:38 71.0 °F /  21.7 °C 70.1 °F /  21.2 °C 29.84 in /  1010.4 hPa Calm     97 % 0.00 in /  0 mm
08:43 71.1 °F /  21.7 °C 70.2 °F /  21.2 °C 29.84 in /  1010.4 hPa SW 0.7 mph /  1.1 km/h 3.0 mph /  4.8 km/h 97 % 0.00 in /  0 mm
08:48 71.2 °F /  21.8 °C 70.3 °F /  21.3 °C 29.84 in /  1010.4 hPa Calm   1.2 mph /  1.9 km/h 97 % 0.00 in /  0 mm
08:53 71.3 °F /  21.8 °C 70.1 °F /  21.2 °C 29.83 in /  1010 hPa South 0.9 mph /  1.4 km/h 3.5 mph /  5.6 km/h 96 % 0.00 in /  0 mm
08:59 71.5 °F /  21.9 °C 70.3 °F /  21.3 °C 29.83 in /  1010 hPa West 0.7 mph /  1.1 km/h 1.2 mph /  1.9 km/h 96 % 0.00 in /  0 mm
09:04 71.7 °F /  22.1 °C 70.5 °F /  21.4 °C 29.84 in /  1010.4 hPa SW 2.6 mph /  4.2 km/h 4.6 mph /  7.4 km/h 96 % 0.00 in /  0 mm
09:09 71.9 °F /  22.2 °C 70.7 °F /  21.5 °C 29.84 in /  1010.4 hPa SW 2.9 mph /  4.7 km/h 5.8 mph /  9.3 km/h 96 % 0.00 in /  0 mm
09:14 72.1 °F /  22.3 °C 70.6 °F /  21.4 °C 29.84 in /  1010.4 hPa West 1.4 mph /  2.3 km/h 3.5 mph /  5.6 km/h 95 % 0.00 in /  0 mm
09:19 72.3 °F /  22.4 °C 70.8 °F /  21.6 °C 29.84 in /  1010.4 hPa Calm     95 % 0.00 in /  0 mm
09:24 72.5 °F /  22.5 °C 70.7 °F /  21.5 °C 29.84 in /  1010.4 hPa West 0.1 mph /  0.2 km/h 1.2 mph /  1.9 km/h 94 % 0.00 in /  0 mm
09:29 72.7 °F /  22.6 °C 70.9 °F /  21.6 °C 29.84 in /  1010.4 hPa Calm     94 % 0.00 in /  0 mm
09:34 72.8 °F /  22.7 °C 71.0 °F /  21.7 °C 29.85 in /  1010.7 hPa Calm     94 % 0.00 in /  0 mm
09:39 73.0 °F /  22.8 °C 70.9 °F /  21.6 °C 29.84 in /  1010.4 hPa Calm     93 % 0.00 in /  0 mm
09:44 73.1 °F /  22.8 °C 71.0 °F /  21.7 °C 29.84 in /  1010.4 hPa Calm     93 % 0.00 in /  0 mm
09:49 73.2 °F /  22.9 °C 70.7 °F /  21.5 °C 29.84 in /  1010.4 hPa Calm     92 % 0.00 in /  0 mm
09:54 73.3 °F /  22.9 °C 70.8 °F /  21.6 °C 29.85 in /  1010.7 hPa Calm     92 % 0.00 in /  0 mm
09:59 73.3 °F /  22.9 °C 70.8 °F /  21.6 °C 29.84 in /  1010.4 hPa Calm   1.2 mph /  1.9 km/h 92 % 0.00 in /  0 mm
10:04 73.4 °F /  23 °C 70.9 °F /  21.6 °C 29.84 in /  1010.4 hPa West 0.3 mph /  0.5 km/h 2.3 mph /  3.7 km/h 92 % 0.00 in /  0 mm
10:09 73.5 °F /  23.1 °C 70.7 °F /  21.5 °C 29.85 in /  1010.7 hPa Calm     91 % 0.00 in /  0 mm
10:14 73.7 °F /  23.2 °C 70.6 °F /  21.4 °C 29.85 in /  1010.7 hPa ESE 2.2 mph /  3.5 km/h 3.5 mph /  5.6 km/h 90 % 0.00 in /  0 mm
10:20 73.8 °F /  23.2 °C 70.4 °F /  21.3 °C 29.85 in /  1010.7 hPa ESE 0.7 mph /  1.1 km/h 2.3 mph /  3.7 km/h 89 % 0.00 in /  0 mm
10:25 74.0 °F /  23.3 °C 70.6 °F /  21.4 °C 29.84 in /  1010.4 hPa Calm     89 % 0.00 in /  0 mm
10:30 74.3 °F /  23.5 °C 70.8 °F /  21.6 °C 29.84 in /  1010.4 hPa Calm     89 % 0.00 in /  0 mm
10:35 74.7 °F /  23.7 °C 71.6 °F /  22 °C 29.85 in /  1010.7 hPa Calm   1.2 mph /  1.9 km/h 90 % 0.00 in /  0 mm
10:40 75.0 °F /  23.9 °C 71.5 °F /  21.9 °C 29.85 in /  1010.7 hPa SE 0.4 mph /  0.6 km/h 2.0 mph /  3.2 km/h 89 % 0.00 in /  0 mm
10:45 75.4 °F /  24.1 °C 70.9 °F /  21.6 °C 29.84 in /  1010.4 hPa WSW 1.4 mph /  2.3 km/h 4.0 mph /  6.4 km/h 86 % 0.00 in /  0 mm
10:50 75.7 °F /  24.3 °C 70.9 °F /  21.6 °C 29.85 in /  1010.7 hPa SW 2.4 mph /  3.9 km/h 6.9 mph /  11.1 km/h 85 % 0.00 in /  0 mm
10:55 76.0 °F /  24.4 °C 71.2 °F /  21.8 °C 29.85 in /  1010.7 hPa SW 0.3 mph /  0.5 km/h 1.2 mph /  1.9 km/h 85 % 0.00 in /  0 mm
11:00 76.3 °F /  24.6 °C 71.1 °F /  21.7 °C 29.84 in /  1010.4 hPa Calm     84 % 0.00 in /  0 mm
11:05 76.6 °F /  24.8 °C 71.4 °F /  21.9 °C 29.84 in /  1010.4 hPa SW 1.9 mph /  3.1 km/h 3.5 mph /  5.6 km/h 84 % 0.00 in /  0 mm
11:10 76.8 °F /  24.9 °C 71.2 °F /  21.8 °C 29.84 in /  1010.4 hPa West 0.6 mph /  1 km/h 2.0 mph /  3.2 km/h 83 % 0.00 in /  0 mm
11:15 77.1 °F /  25.1 °C 71.5 °F /  21.9 °C 29.84 in /  1010.4 hPa SE 1.4 mph /  2.3 km/h 4.0 mph /  6.4 km/h 83 % 0.00 in /  0 mm
11:20 77.4 °F /  25.2 °C 71.1 °F /  21.7 °C 29.84 in /  1010.4 hPa SE 1.1 mph /  1.8 km/h 2.0 mph /  3.2 km/h 81 % 0.00 in /  0 mm
11:25 77.7 °F /  25.4 °C 71.8 °F /  22.1 °C 29.84 in /  1010.4 hPa SE 2.6 mph /  4.2 km/h 3.5 mph /  5.6 km/h 82 % 0.00 in /  0 mm
11:31 78.1 °F /  25.6 °C 71.4 °F /  21.9 °C 29.84 in /  1010.4 hPa Calm   2.0 mph /  3.2 km/h 80 % 0.00 in /  0 mm
11:36 78.4 °F /  25.8 °C 71.3 °F /  21.8 °C 29.84 in /  1010.4 hPa SSE 2.0 mph /  3.2 km/h 5.0 mph /  8 km/h 79 % 0.00 in /  0 mm
11:41 78.8 °F /  26 °C 72.1 °F /  22.3 °C 29.84 in /  1010.4 hPa SSW 1.0 mph /  1.6 km/h 4.0 mph /  6.4 km/h 80 % 0.00 in /  0 mm
11:46 79.2 °F /  26.2 °C 72.1 °F /  22.3 °C 29.84 in /  1010.4 hPa SW 1.0 mph /  1.6 km/h 4.0 mph /  6.4 km/h 79 % 0.00 in /  0 mm
11:51 79.6 °F /  26.4 °C 72.1 °F /  22.3 °C 29.84 in /  1010.4 hPa SW 1.0 mph /  1.6 km/h 5.0 mph /  8 km/h 78 % 0.00 in /  0 mm
11:56 79.9 °F /  26.6 °C 71.3 °F /  21.8 °C 29.84 in /  1010.4 hPa SSW 2.0 mph /  3.2 km/h 5.0 mph /  8 km/h 75 % 0.00 in /  0 mm
12:01 80.2 °F /  26.8 °C 72.3 °F /  22.4 °C 29.84 in /  1010.4 hPa West 2.3 mph /  3.7 km/h 3.5 mph /  5.6 km/h 77 % 0.00 in /  0 mm
12:06 80.4 °F /  26.9 °C 72.1 °F /  22.3 °C 29.84 in /  1010.4 hPa WSW 1.0 mph /  1.6 km/h 5.0 mph /  8 km/h 76 % 0.00 in /  0 mm
12:11 80.5 °F /  26.9 °C 72.2 °F /  22.3 °C 29.83 in /  1010 hPa SW 1.2 mph /  1.9 km/h 2.3 mph /  3.7 km/h 76 % 0.00 in /  0 mm
12:16 80.6 °F /  27 °C 71.9 °F /  22.2 °C 29.84 in /  1010.4 hPa Calm   5.0 mph /  8 km/h 75 % 0.00 in /  0 mm
12:21 80.7 °F /  27.1 °C 72.8 °F /  22.7 °C 29.84 in /  1010.4 hPa SSE 0.1 mph /  0.2 km/h 1.0 mph /  1.6 km/h 77 % 0.00 in /  0 mm
12:26 80.8 °F /  27.1 °C 71.3 °F /  21.8 °C 29.83 in /  1010 hPa SSE 1.0 mph /  1.6 km/h 4.0 mph /  6.4 km/h 73 % 0.00 in /  0 mm
12:31 81.0 °F /  27.2 °C 71.9 °F /  22.2 °C 29.83 in /  1010 hPa SE 3.4 mph /  5.5 km/h 5.8 mph /  9.3 km/h 74 % 0.00 in /  0 mm
12:36 81.2 °F /  27.3 °C 72.2 °F /  22.3 °C 29.83 in /  1010 hPa SSE 2.0 mph /  3.2 km/h 5.0 mph /  8 km/h 74 % 0.00 in /  0 mm
12:41 81.5 °F /  27.5 °C 72.4 °F /  22.4 °C 29.83 in /  1010 hPa WSW 1.0 mph /  1.6 km/h 5.0 mph /  8 km/h 74 % 0.00 in /  0 mm
12:46 81.6 °F /  27.6 °C 72.1 °F /  22.3 °C 29.83 in /  1010 hPa Calm   4.0 mph /  6.4 km/h 73 % 0.00 in /  0 mm
12:51 81.6 °F /  27.6 °C 72.1 °F /  22.3 °C 29.83 in /  1010 hPa SSE 1.0 mph /  1.6 km/h 4.0 mph /  6.4 km/h 73 % 0.00 in /  0 mm
12:56 81.6 °F /  27.6 °C 72.5 °F /  22.5 °C 29.83 in /  1010 hPa SW 1.0 mph /  1.6 km/h 5.0 mph /  8 km/h 74 % 0.00 in /  0 mm
13:01 81.6 °F /  27.6 °C 71.7 °F /  22.1 °C 29.83 in /  1010 hPa SW 1.2 mph /  1.9 km/h 3.5 mph /  5.6 km/h 72 % 0.00 in /  0 mm
13:06 81.6 °F /  27.6 °C 72.1 °F /  22.3 °C 29.83 in /  1010 hPa South 1.0 mph /  1.6 km/h 4.0 mph /  6.4 km/h 73 % 0.00 in /  0 mm
13:11 81.8 °F /  27.7 °C 72.3 °F /  22.4 °C 29.82 in /  1009.7 hPa SW 1.4 mph /  2.3 km/h 3.5 mph /  5.6 km/h 73 % 0.00 in /  0 mm
13:16 82.0 °F /  27.8 °C 72.1 °F /  22.3 °C 29.82 in /  1009.7 hPa Calm   1.0 mph /  1.6 km/h 72 % 0.00 in /  0 mm
13:21 82.3 °F /  27.9 °C 71.5 °F /  21.9 °C 29.82 in /  1009.7 hPa Calm   3.0 mph /  4.8 km/h 70 % 0.00 in /  0 mm
13:26 82.9 °F /  28.3 °C 71.7 °F /  22.1 °C 29.82 in /  1009.7 hPa SSE 0.3 mph /  0.5 km/h 3.5 mph /  5.6 km/h 69 % 0.00 in /  0 mm
13:31 83.7 °F /  28.7 °C 72.0 °F /  22.2 °C 29.82 in /  1009.7 hPa SW 2.6 mph /  4.2 km/h 4.6 mph /  7.4 km/h 68 % 0.00 in /  0 mm
13:36 84.0 °F /  28.9 °C 71.0 °F /  21.7 °C 29.81 in /  1009.4 hPa SW 2.0 mph /  3.2 km/h 5.0 mph /  8 km/h 65 % 0.00 in /  0 mm
13:41 84.3 °F /  29.1 °C 71.3 °F /  21.8 °C 29.81 in /  1009.4 hPa WSW 1.0 mph /  1.6 km/h 5.0 mph /  8 km/h 65 % 0.00 in /  0 mm
13:46 84.8 °F /  29.3 °C 70.3 °F /  21.3 °C 29.81 in /  1009.4 hPa SW 2.0 mph /  3.2 km/h 5.0 mph /  8 km/h 62 % 0.00 in /  0 mm
13:51 85.3 °F /  29.6 °C 71.7 °F /  22.1 °C 29.81 in /  1009.4 hPa WNW 4.5 mph /  7.2 km/h 6.9 mph /  11.1 km/h 64 % 0.00 in /  0 mm
13:56 85.7 °F /  29.8 °C 74.3 °F /  23.5 °C 29.81 in /  1009.4 hPa North 1.0 mph /  1.6 km/h 6.0 mph /  9.7 km/h 69 % 0.00 in /  0 mm
14:01 85.7 °F /  29.8 °C 74.8 °F /  23.8 °C 29.81 in /  1009.4 hPa NNW 1.0 mph /  1.6 km/h 2.0 mph /  3.2 km/h 70 % 0.00 in /  0 mm
14:06 85.8 °F /  29.9 °C 71.3 °F /  21.8 °C 29.80 in /  1009 hPa WNW 1.0 mph /  1.6 km/h 5.0 mph /  8 km/h 62 % 0.00 in /  0 mm
14:11 86.1 °F /  30.1 °C 74.3 °F /  23.5 °C 29.81 in /  1009.4 hPa SE 0.6 mph /  1 km/h 2.0 mph /  3.2 km/h 68 % 0.00 in /  0 mm
14:16 86.1 °F /  30.1 °C 73.4 °F /  23 °C 29.80 in /  1009 hPa ENE 1.3 mph /  2.1 km/h 2.3 mph /  3.7 km/h 66 % 0.00 in /  0 mm
14:21 86.2 °F /  30.1 °C 73.0 °F /  22.8 °C 29.80 in /  1009 hPa Calm   6.0 mph /  9.7 km/h 65 % 0.00 in /  0 mm
14:26 86.1 °F /  30.1 °C 69.1 °F /  20.6 °C 29.80 in /  1009 hPa SSE 2.0 mph /  3.2 km/h 12.0 mph /  19.3 km/h 57 % 0.00 in /  0 mm
14:31 85.9 °F /  29.9 °C 70.4 °F /  21.3 °C 29.80 in /  1009 hPa South 0.5 mph /  0.8 km/h 3.5 mph /  5.6 km/h 60 % 0.00 in /  0 mm
14:36 86.1 °F /  30.1 °C 72.0 °F /  22.2 °C 29.80 in /  1009 hPa Calm   8.0 mph /  12.9 km/h 63 % 0.00 in /  0 mm
14:41 86.1 °F /  30.1 °C 70.1 °F /  21.2 °C 29.80 in /  1009 hPa Calm   7.0 mph /  11.3 km/h 59 % 0.00 in /  0 mm
14:46 86.0 °F /  30 °C 69.0 °F /  20.6 °C 29.80 in /  1009 hPa South 2.0 mph /  3.2 km/h 9.0 mph /  14.5 km/h 57 % 0.00 in /  0 mm
14:51 85.8 °F /  29.9 °C 69.8 °F /  21 °C 29.80 in /  1009 hPa SSW 1.3 mph /  2.1 km/h 3.5 mph /  5.6 km/h 59 % 0.00 in /  0 mm
14:56 85.6 °F /  29.8 °C 68.6 °F /  20.3 °C 29.80 in /  1009 hPa SE 2.5 mph /  4 km/h 7.0 mph /  11.3 km/h 57 % 0.00 in /  0 mm
15:01 84.9 °F /  29.4 °C 68.0 °F /  20 °C 29.80 in /  1009 hPa SSW 2.0 mph /  3.2 km/h 7.0 mph /  11.3 km/h 57 % 0.00 in /  0 mm
15:06 84.3 °F /  29.1 °C 67.9 °F /  19.9 °C 29.80 in /  1009 hPa South 2.6 mph /  4.2 km/h 4.6 mph /  7.4 km/h 58 % 0.00 in /  0 mm
15:11 83.7 °F /  28.7 °C 68.3 °F /  20.2 °C 29.80 in /  1009 hPa SSE 2.9 mph /  4.7 km/h 8.1 mph /  13 km/h 60 % 0.00 in /  0 mm
15:16 83.1 °F /  28.4 °C 69.2 °F /  20.7 °C 29.80 in /  1009 hPa SSE 0.5 mph /  0.8 km/h 5.8 mph /  9.3 km/h 63 % 0.00 in /  0 mm
15:22 82.8 °F /  28.2 °C 69.8 °F /  21 °C 29.81 in /  1009.4 hPa SE 2.1 mph /  3.4 km/h 3.5 mph /  5.6 km/h 65 % 0.00 in /  0 mm
15:27 82.3 °F /  27.9 °C 69.4 °F /  20.8 °C 29.80 in /  1009 hPa South 1.4 mph /  2.3 km/h 3.5 mph /  5.6 km/h 65 % 0.00 in /  0 mm
15:32 81.5 °F /  27.5 °C 69.0 °F /  20.6 °C 29.80 in /  1009 hPa Calm   3.5 mph /  5.6 km/h 66 % 0.00 in /  0 mm
15:37 81.2 °F /  27.3 °C 69.6 °F /  20.9 °C 29.80 in /  1009 hPa Calm   3.5 mph /  5.6 km/h 68 % 0.00 in /  0 mm
15:42 80.9 °F /  27.2 °C 69.3 °F /  20.7 °C 29.80 in /  1009 hPa Calm   1.2 mph /  1.9 km/h 68 % 0.00 in /  0 mm
15:47 80.8 °F /  27.1 °C 70.1 °F /  21.2 °C 29.80 in /  1009 hPa SE 0.2 mph /  0.3 km/h 1.2 mph /  1.9 km/h 70 % 0.00 in /  0 mm
15:52 80.6 °F /  27 °C 69.5 °F /  20.8 °C 29.80 in /  1009 hPa SW 1.5 mph /  2.4 km/h 3.5 mph /  5.6 km/h 69 % 0.00 in /  0 mm
15:57 80.3 °F /  26.8 °C 69.2 °F /  20.7 °C 29.80 in /  1009 hPa SSW 2.1 mph /  3.4 km/h 4.0 mph /  6.4 km/h 69 % 0.00 in /  0 mm
16:02 80.1 °F /  26.7 °C 69.0 °F /  20.6 °C 29.80 in /  1009 hPa West 0.6 mph /  1 km/h 4.6 mph /  7.4 km/h 69 % 0.00 in /  0 mm
16:07 80.1 °F /  26.7 °C 69.4 °F /  20.8 °C 29.80 in /  1009 hPa SSE 2.3 mph /  3.7 km/h 5.0 mph /  8 km/h 70 % 0.00 in /  0 mm
16:12 80.1 °F /  26.7 °C 69.0 °F /  20.6 °C 29.80 in /  1009 hPa SW 0.2 mph /  0.3 km/h 2.3 mph /  3.7 km/h 69 % 0.00 in /  0 mm
16:17 80.1 °F /  26.7 °C 69.0 °F /  20.6 °C 29.80 in /  1009 hPa SE 0.2 mph /  0.3 km/h 2.3 mph /  3.7 km/h 69 % 0.00 in /  0 mm
16:23 80.1 °F /  26.7 °C 69.0 °F /  20.6 °C 29.79 in /  1008.7 hPa SE 1.9 mph /  3.1 km/h 5.8 mph /  9.3 km/h 69 % 0.00 in /  0 mm
16:28 79.9 °F /  26.6 °C 69.2 °F /  20.7 °C 29.80 in /  1009 hPa SSE 1.0 mph /  1.6 km/h 6.9 mph /  11.1 km/h 70 % 0.00 in /  0 mm
16:33 79.8 °F /  26.6 °C 69.6 °F /  20.9 °C 29.80 in /  1009 hPa SSE 0.4 mph /  0.6 km/h 5.8 mph /  9.3 km/h 71 % 0.00 in /  0 mm
16:38 79.8 °F /  26.6 °C 70.0 °F /  21.1 °C 29.80 in /  1009 hPa SSE 3.2 mph /  5.1 km/h 10.4 mph /  16.7 km/h 72 % 0.00 in /  0 mm
16:43 79.8 °F /  26.6 °C 70.4 °F /  21.3 °C 29.80 in /  1009 hPa WSW 1.0 mph /  1.6 km/h 3.5 mph /  5.6 km/h 73 % 0.00 in /  0 mm
16:48 79.7 °F /  26.5 °C 70.3 °F /  21.3 °C 29.80 in /  1009 hPa SE 0.7 mph /  1.1 km/h 3.5 mph /  5.6 km/h 73 % 0.00 in /  0 mm
16:53 79.5 °F /  26.4 °C 70.5 °F /  21.4 °C 29.80 in /  1009 hPa SSE 0.1 mph /  0.2 km/h 1.2 mph /  1.9 km/h 74 % 0.00 in /  0 mm
16:58 79.4 °F /  26.3 °C 70.8 °F /  21.6 °C 29.80 in /  1009 hPa South 1.6 mph /  2.6 km/h 5.0 mph /  8 km/h 75 % 0.00 in /  0 mm
17:03 79.2 °F /  26.2 °C 70.6 °F /  21.4 °C 29.79 in /  1008.7 hPa SE 0.9 mph /  1.4 km/h 2.3 mph /  3.7 km/h 75 % 0.00 in /  0 mm
17:08 79.1 °F /  26.2 °C 70.5 °F /  21.4 °C 29.79 in /  1008.7 hPa SE 0.9 mph /  1.4 km/h 3.5 mph /  5.6 km/h 75 % 0.00 in /  0 mm
17:13 78.9 °F /  26.1 °C 70.7 °F /  21.5 °C 29.79 in /  1008.7 hPa SSW 2.4 mph /  3.9 km/h 6.9 mph /  11.1 km/h 76 % 0.00 in /  0 mm
17:18 78.6 °F /  25.9 °C 70.4 °F /  21.3 °C 29.80 in /  1009 hPa SSW 1.0 mph /  1.6 km/h 3.5 mph /  5.6 km/h 76 % 0.00 in /  0 mm
17:23 78.4 °F /  25.8 °C 70.6 °F /  21.4 °C 29.80 in /  1009 hPa SE 0.7 mph /  1.1 km/h 2.3 mph /  3.7 km/h 77 % 0.00 in /  0 mm
17:28 78.2 °F /  25.7 °C 70.8 °F /  21.6 °C 29.80 in /  1009 hPa Calm   3.5 mph /  5.6 km/h 78 % 0.00 in /  0 mm
17:34 78.0 °F /  25.6 °C 70.6 °F /  21.4 °C 29.80 in /  1009 hPa SSW 1.6 mph /  2.6 km/h 2.3 mph /  3.7 km/h 78 % 0.00 in /  0 mm
17:39 77.7 °F /  25.4 °C 70.3 °F /  21.3 °C 29.80 in /  1009 hPa Calm   2.3 mph /  3.7 km/h 78 % 0.00 in /  0 mm
17:44 77.6 °F /  25.3 °C 70.2 °F /  21.2 °C 29.80 in /  1009 hPa SSE 1.0 mph /  1.6 km/h 3.5 mph /  5.6 km/h 78 % 0.00 in /  0 mm
17:49 77.4 °F /  25.2 °C 70.0 °F /  21.1 °C 29.80 in /  1009 hPa South 0.8 mph /  1.3 km/h 3.5 mph /  5.6 km/h 78 % 0.00 in /  0 mm
17:54 77.2 °F /  25.1 °C 69.8 °F /  21 °C 29.80 in /  1009 hPa Calm   1.2 mph /  1.9 km/h 78 % 0.00 in /  0 mm
17:59 77.1 °F /  25.1 °C 70.1 °F /  21.2 °C 29.80 in /  1009 hPa SSE 0.5 mph /  0.8 km/h 3.5 mph /  5.6 km/h 79 % 0.00 in /  0 mm
18:04 76.9 °F /  24.9 °C 69.9 °F /  21.1 °C 29.80 in /  1009 hPa SSE 0.4 mph /  0.6 km/h 3.5 mph /  5.6 km/h 79 % 0.00 in /  0 mm
18:09 76.7 °F /  24.8 °C 70.1 °F /  21.2 °C 29.81 in /  1009.4 hPa South 0.3 mph /  0.5 km/h 2.3 mph /  3.7 km/h 80 % 0.00 in /  0 mm
18:14 76.6 °F /  24.8 °C 70.0 °F /  21.1 °C 29.81 in /  1009.4 hPa SE 0.3 mph /  0.5 km/h 3.5 mph /  5.6 km/h 80 % 0.00 in /  0 mm
18:19 76.5 °F /  24.7 °C 70.2 °F /  21.2 °C 29.80 in /  1009 hPa SE 0.2 mph /  0.3 km/h 1.2 mph /  1.9 km/h 81 % 0.00 in /  0 mm
18:24 76.4 °F /  24.7 °C 70.1 °F /  21.2 °C 29.81 in /  1009.4 hPa Calm   1.2 mph /  1.9 km/h 81 % 0.00 in /  0 mm
18:29 76.2 °F /  24.6 °C 70.3 °F /  21.3 °C 29.81 in /  1009.4 hPa SSW 0.5 mph /  0.8 km/h 1.2 mph /  1.9 km/h 82 % 0.00 in /  0 mm
18:35 76.1 °F /  24.5 °C 70.2 °F /  21.2 °C 29.81 in /  1009.4 hPa SSW 0.8 mph /  1.3 km/h 2.3 mph /  3.7 km/h 82 % 0.00 in /  0 mm
18:40 76.0 °F /  24.4 °C 70.1 °F /  21.2 °C 29.82 in /  1009.7 hPa SE 0.6 mph /  1 km/h 3.5 mph /  5.6 km/h 82 % 0.00 in /  0 mm
18:45 75.9 °F /  24.4 °C 70.0 °F /  21.1 °C 29.82 in /  1009.7 hPa Calm   3.5 mph /  5.6 km/h 82 % 0.00 in /  0 mm
18:50 75.7 °F /  24.3 °C 70.2 °F /  21.2 °C 29.82 in /  1009.7 hPa SSE 0.1 mph /  0.2 km/h 1.2 mph /  1.9 km/h 83 % 0.00 in /  0 mm
18:55 75.6 °F /  24.2 °C 70.1 °F /  21.2 °C 29.82 in /  1009.7 hPa SSE 0.2 mph /  0.3 km/h 2.3 mph /  3.7 km/h 83 % 0.00 in /  0 mm
19:00 75.5 °F /  24.2 °C 70.0 °F /  21.1 °C 29.82 in /  1009.7 hPa SW 1.0 mph /  1.6 km/h 5.0 mph /  8 km/h 83 % 0.00 in /  0 mm
19:05 75.4 °F /  24.1 °C 70.2 °F /  21.2 °C 29.82 in /  1009.7 hPa SSW 0.7 mph /  1.1 km/h 2.3 mph /  3.7 km/h 84 % 0.00 in /  0 mm
19:10 75.3 °F /  24.1 °C 70.1 °F /  21.2 °C 29.82 in /  1009.7 hPa South 0.5 mph /  0.8 km/h 2.3 mph /  3.7 km/h 84 % 0.00 in /  0 mm
19:15 75.2 °F /  24 °C 70.0 °F /  21.1 °C 29.82 in /  1009.7 hPa Calm     84 % 0.00 in /  0 mm
19:25 75.0 °F /  23.9 °C 69.8 °F /  21 °C 29.82 in /  1009.7 hPa WSW 0.2 mph /  0.3 km/h 1.2 mph /  1.9 km/h 84 % 0.00 in /  0 mm
19:30 74.9 °F /  23.8 °C 69.7 °F /  20.9 °C 29.82 in /  1009.7 hPa Calm   1.2 mph /  1.9 km/h 84 % 0.00 in /  0 mm
19:35 74.9 °F /  23.8 °C 69.7 °F /  20.9 °C 29.83 in /  1010 hPa Calm   1.2 mph /  1.9 km/h 84 % 0.00 in /  0 mm
19:40 74.7 °F /  23.7 °C 69.2 °F /  20.7 °C 29.83 in /  1010 hPa SSW 0.4 mph /  0.6 km/h 2.3 mph /  3.7 km/h 83 % 0.00 in /  0 mm
19:46 74.6 °F /  23.7 °C 69.1 °F /  20.6 °C 29.83 in /  1010 hPa Calm   2.0 mph /  3.2 km/h 83 % 0.00 in /  0 mm
19:51 74.6 °F /  23.7 °C 69.1 °F /  20.6 °C 29.84 in /  1010.4 hPa Calm   1.0 mph /  1.6 km/h 83 % 0.00 in /  0 mm
19:56 74.5 °F /  23.6 °C 69.3 °F /  20.7 °C 29.84 in /  1010.4 hPa Calm   1.0 mph /  1.6 km/h 84 % 0.00 in /  0 mm
20:01 74.5 °F /  23.6 °C 69.3 °F /  20.7 °C 29.84 in /  1010.4 hPa Calm   1.2 mph /  1.9 km/h 84 % 0.00 in /  0 mm
20:06 74.4 °F /  23.6 °C 69.6 °F /  20.9 °C 29.84 in /  1010.4 hPa SW 0.1 mph /  0.2 km/h 2.3 mph /  3.7 km/h 85 % 0.00 in /  0 mm
20:11 74.3 °F /  23.5 °C 69.5 °F /  20.8 °C 29.85 in /  1010.7 hPa South 0.5 mph /  0.8 km/h 2.3 mph /  3.7 km/h 85 % 0.00 in /  0 mm
20:16 74.3 °F /  23.5 °C 69.8 °F /  21 °C 29.85 in /  1010.7 hPa SSW 0.4 mph /  0.6 km/h 2.3 mph /  3.7 km/h 86 % 0.00 in /  0 mm
20:21 74.2 °F /  23.4 °C 69.7 °F /  20.9 °C 29.85 in /  1010.7 hPa Calm     86 % 0.00 in /  0 mm
20:26 74.2 °F /  23.4 °C 70.1 °F /  21.2 °C 29.85 in /  1010.7 hPa SW 0.2 mph /  0.3 km/h   87 % 0.00 in /  0 mm
20:31 74.1 °F /  23.4 °C 70.0 °F /  21.1 °C 29.85 in /  1010.7 hPa West 0.3 mph /  0.5 km/h 2.0 mph /  3.2 km/h 87 % 0.00 in /  0 mm
20:36 74.1 °F /  23.4 °C 70.0 °F /  21.1 °C 29.86 in /  1011.1 hPa Calm     87 % 0.00 in /  0 mm
20:41 74.0 °F /  23.3 °C 69.9 °F /  21.1 °C 29.86 in /  1011.1 hPa Calm     87 % 0.00 in /  0 mm
20:46 74.0 °F /  23.3 °C 69.9 °F /  21.1 °C 29.85 in /  1010.7 hPa Calm   1.2 mph /  1.9 km/h 87 % 0.00 in /  0 mm
20:51 73.9 °F /  23.3 °C 69.8 °F /  21 °C 29.86 in /  1011.1 hPa SSW 0.1 mph /  0.2 km/h 1.2 mph /  1.9 km/h 87 % 0.00 in /  0 mm
20:57 73.9 °F /  23.3 °C 69.8 °F /  21 °C 29.85 in /  1010.7 hPa Calm   2.3 mph /  3.7 km/h 87 % 0.00 in /  0 mm
21:02 73.8 °F /  23.2 °C 70.0 °F /  21.1 °C 29.85 in /  1010.7 hPa Calm     88 % 0.00 in /  0 mm
21:07 73.7 °F /  23.2 °C 69.9 °F /  21.1 °C 29.85 in /  1010.7 hPa SE 0.1 mph /  0.2 km/h 2.3 mph /  3.7 km/h 88 % 0.00 in /  0 mm
21:12 73.7 °F /  23.2 °C 69.9 °F /  21.1 °C 29.85 in /  1010.7 hPa SW 0.2 mph /  0.3 km/h 1.2 mph /  1.9 km/h 88 % 0.00 in /  0 mm
21:17 73.6 °F /  23.1 °C 69.8 °F /  21 °C 29.85 in /  1010.7 hPa SE 0.1 mph /  0.2 km/h 1.2 mph /  1.9 km/h 88 % 0.00 in /  0 mm
21:22 73.6 °F /  23.1 °C 69.8 °F /  21 °C 29.85 in /  1010.7 hPa SE 0.1 mph /  0.2 km/h 1.2 mph /  1.9 km/h 88 % 0.00 in /  0 mm
21:27 73.5 °F /  23.1 °C 69.7 °F /  20.9 °C 29.85 in /  1010.7 hPa SSE 0.2 mph /  0.3 km/h 1.2 mph /  1.9 km/h 88 % 0.00 in /  0 mm
21:32 73.4 °F /  23 °C 69.6 °F /  20.9 °C 29.86 in /  1011.1 hPa SE 0.1 mph /  0.2 km/h 1.2 mph /  1.9 km/h 88 % 0.00 in /  0 mm
21:37 73.4 °F /  23 °C 69.6 °F /  20.9 °C 29.85 in /  1010.7 hPa SE 0.1 mph /  0.2 km/h 1.2 mph /  1.9 km/h 88 % 0.00 in /  0 mm
21:42 73.3 °F /  22.9 °C 69.5 °F /  20.8 °C 29.86 in /  1011.1 hPa SSE 0.3 mph /  0.5 km/h 1.2 mph /  1.9 km/h 88 % 0.00 in /  0 mm
21:47 73.3 °F /  22.9 °C 69.9 °F /  21.1 °C 29.86 in /  1011.1 hPa SSE 0.1 mph /  0.2 km/h 1.2 mph /  1.9 km/h 89 % 0.00 in /  0 mm
21:52 73.2 °F /  22.9 °C 69.8 °F /  21 °C 29.86 in /  1011.1 hPa SSE 0.2 mph /  0.3 km/h 1.2 mph /  1.9 km/h 89 % 0.00 in /  0 mm
21:57 73.2 °F /  22.9 °C 69.8 °F /  21 °C 29.86 in /  1011.1 hPa SSE 0.4 mph /  0.6 km/h 1.2 mph /  1.9 km/h 89 % 0.00 in /  0 mm
22:03 73.2 °F /  22.9 °C 69.8 °F /  21 °C 29.86 in /  1011.1 hPa Calm   1.0 mph /  1.6 km/h 89 % 0.00 in /  0 mm
22:08 73.1 °F /  22.8 °C 69.7 °F /  20.9 °C 29.86 in /  1011.1 hPa South 0.5 mph /  0.8 km/h 1.2 mph /  1.9 km/h 89 % 0.00 in /  0 mm
22:13 73.1 °F /  22.8 °C 69.7 °F /  20.9 °C 29.86 in /  1011.1 hPa Calm   1.2 mph /  1.9 km/h 89 % 0.00 in /  0 mm
22:18 73.1 °F /  22.8 °C 69.7 °F /  20.9 °C 29.86 in /  1011.1 hPa SSE 0.2 mph /  0.3 km/h 1.2 mph /  1.9 km/h 89 % 0.00 in /  0 mm
22:23 73.1 °F /  22.8 °C 69.7 °F /  20.9 °C 29.86 in /  1011.1 hPa SSE 0.1 mph /  0.2 km/h 1.2 mph /  1.9 km/h 89 % 0.00 in /  0 mm
22:28 73.0 °F /  22.8 °C 69.6 °F /  20.9 °C 29.87 in /  1011.4 hPa Calm   1.2 mph /  1.9 km/h 89 % 0.00 in /  0 mm
22:33 73.0 °F /  22.8 °C 69.6 °F /  20.9 °C 29.86 in /  1011.1 hPa WSW 0.1 mph /  0.2 km/h 1.2 mph /  1.9 km/h 89 % 0.00 in /  0 mm
22:38 73.0 °F /  22.8 °C 69.6 °F /  20.9 °C 29.87 in /  1011.4 hPa Calm   1.2 mph /  1.9 km/h 89 % 0.00 in /  0 mm
22:43 73.0 °F /  22.8 °C 69.6 °F /  20.9 °C 29.87 in /  1011.4 hPa WSW 0.2 mph /  0.3 km/h 1.0 mph /  1.6 km/h 89 % 0.00 in /  0 mm
22:48 73.0 °F /  22.8 °C 69.6 °F /  20.9 °C 29.87 in /  1011.4 hPa Calm   1.2 mph /  1.9 km/h 89 % 0.00 in /  0 mm
22:53 73.0 °F /  22.8 °C 69.6 °F /  20.9 °C 29.87 in /  1011.4 hPa WSW 0.1 mph /  0.2 km/h 1.2 mph /  1.9 km/h 89 % 0.00 in /  0 mm
22:58 72.9 °F /  22.7 °C 69.5 °F /  20.8 °C 29.87 in /  1011.4 hPa Calm   1.2 mph /  1.9 km/h 89 % 0.00 in /  0 mm
23:04 72.9 °F /  22.7 °C 69.5 °F /  20.8 °C 29.87 in /  1011.4 hPa Calm   1.2 mph /  1.9 km/h 89 % 0.00 in /  0 mm
23:09 72.9 °F /  22.7 °C 69.5 °F /  20.8 °C 29.87 in /  1011.4 hPa SW 0.5 mph /  0.8 km/h 2.3 mph /  3.7 km/h 89 % 0.00 in /  0 mm
23:15 72.9 °F /  22.7 °C 69.5 °F /  20.8 °C 29.87 in /  1011.4 hPa SW 0.2 mph /  0.3 km/h 2.3 mph /  3.7 km/h 89 % 0.00 in /  0 mm
23:20 72.8 °F /  22.7 °C 69.4 °F /  20.8 °C 29.88 in /  1011.7 hPa SW 0.4 mph /  0.6 km/h 2.3 mph /  3.7 km/h 89 % 0.00 in /  0 mm
23:22 72.8 °F /  22.7 °C 69.4 °F /  20.8 °C 29.87 in /  1011.4 hPa Calm   2.3 mph /  3.7 km/h 89 % 0.00 in /  0 mm
23:23 72.8 °F /  22.7 °C 69.4 °F /  20.8 °C 29.87 in /  1011.4 hPa SW 0.5 mph /  0.8 km/h 3.0 mph /  4.8 km/h 89 % 0.00 in /  0 mm
23:24 72.8 °F /  22.7 °C 69.4 °F /  20.8 °C 29.87 in /  1011.4 hPa SW 1.0 mph /  1.6 km/h 2.3 mph /  3.7 km/h 89 % 0.00 in /  0 mm
23:27 72.8 °F /  22.7 °C 69.4 °F /  20.8 °C 29.87 in /  1011.4 hPa SSW 0.3 mph /  0.5 km/h 1.2 mph /  1.9 km/h 89 % 0.00 in /  0 mm
23:31 72.7 °F /  22.6 °C 69.3 °F /  20.7 °C 29.87 in /  1011.4 hPa SSW 0.4 mph /  0.6 km/h 1.2 mph /  1.9 km/h 89 % 0.00 in /  0 mm
23:36 72.7 °F /  22.6 °C 69.3 °F /  20.7 °C 29.87 in /  1011.4 hPa SSW 0.5 mph /  0.8 km/h   89 % 0.00 in /  0 mm
23:41 72.6 °F /  22.6 °C 69.2 °F /  20.7 °C 29.88 in /  1011.7 hPa Calm   1.2 mph /  1.9 km/h 89 % 0.00 in /  0 mm
23:47 72.6 °F /  22.6 °C 69.2 °F /  20.7 °C 29.88 in /  1011.7 hPa SSW 0.5 mph /  0.8 km/h 2.3 mph /  3.7 km/h 89 % 0.00 in /  0 mm
23:52 72.5 °F /  22.5 °C 68.7 °F /  20.4 °C 29.88 in /  1011.7 hPa WSW 0.4 mph /  0.6 km/h 2.3 mph /  3.7 km/h 88 % 0.00 in /  0 mm
23:57 72.4 °F /  22.4 °C 69.0 °F /  20.6 °C 29.88 in /  1011.7 hPa WSW 0.3 mph /  0.5 km/h 3.0 mph /  4.8 km/h 89 % 0.00 in /  0 mm
Crab Meadow Weather
Compliments of Weather Underground - 3 mb

Script developed by  Jim McMurry - jmcmurry@mwt.net Adapted for the template by  Wim van der Kuil - Leuven-Template.eu

Recycling: The U.S. is the #1 trash-producing country in the world at 1,609 pounds per person per year. This means that 5% of the world's people generate 40% of the world's waste.